Flight Track Log - Related Links

Times and Time Zones

All times are in EDT time to prevent confusion due to time zone crossing. See the EJM585 flight status page for this flight to view local times or setup timezone preferences in your user account.

Time Position Orientation Groundspeed Altitude Reporting Facility
EDT Latitude Longitude Course Direction KTS MPH feet Rate Location/Type
Thu 03:08:29 PM 38.9167 -77.4833 311° West 219 252 3,000  Level Potomac TRACON
Thu 03:09:23 PM 38.9500 -77.5333 311° West 261 300 4,600 1,789 Climbing Potomac TRACON
Thu 03:10:23 PM 39.0167 -77.5833 330° Northwest 271 312 6,400 2,150 Climbing Potomac TRACON
Thu 03:11:23 PM 39.0833 -77.5833 360° North 308 354 8,900 1,300 Climbing Potomac TRACON
Thu 03:12:23 PM 39.1500 -77.5167 38° Northeast 306 352 9,000 50 Climbing Potomac TRACON
Thu 03:13:23 PM 39.2167 -77.4500 38° Northeast 305 351 9,000  Level Potomac TRACON
Thu 03:14:23 PM 39.2500 -77.3333 70° East 300 345 9,000 1,429 Level Potomac TRACON
Thu 03:19:45 PM 39.2109 -76.7761 70° East 351 404 18,100 1,768 Climbing FlightAware ADS-B
Thu 03:20:16 PM 39.1964 -76.7142 107° East 357 411 19,400 2,542 Climbing FlightAware ADS-B
Thu 03:20:44 PM 39.1828 -76.6558 107° East 362 417 20,600 2,488 Climbing FlightAware ADS-B
Thu 03:20:57 PM 39.1795 -76.6283 99° East 368 423 21,100 2,143 Climbing FlightAware ADS-B
Thu 03:21:12 PM 39.1804 -76.5942 88° East 377 434 21,600 1,714 Climbing FlightAware ADS-B
Thu 03:21:39 PM 39.1842 -76.5328 85° East 396 456 22,300 1,238 Climbing FlightAware ADS-B
Thu 03:22:15 PM 39.1879 -76.4437 87° East 426 490 22,900 627 Climbing FlightAware ADS-B
Thu 03:22:46 PM 39.1914 -76.3644 87° East 452 520 23,000 97 Climbing FlightAware ADS-B
Thu 03:23:17 PM 39.1935 -76.2808 88° East 454 522 23,000  Level FlightAware ADS-B
Thu 03:23:45 PM 39.1926 -76.2038 91° East 451 519 23,000  Level FlightAware ADS-B
Thu 03:24:17 PM 39.1879 -76.1172 94° East 469 540 23,000  Level FlightAware ADS-B
Thu 03:24:48 PM 39.1824 -76.0309 95° East 475 547 23,000  Level FlightAware ADS-B
Thu 03:25:19 PM 39.1767 -75.9429 95° East 478 550 23,000  Level FlightAware ADS-B
Thu 03:25:49 PM 39.1710 -75.8574 95° East 478 550 23,000  Level FlightAware ADS-B
Thu 03:26:23 PM 39.1646 -75.7611 95° East 474 545 23,000  Level FlightAware ADS-B
Thu 03:27:00 PM 39.1577 -75.6599 95° East 471 542 23,000  Level FlightAware ADS-B
Thu 03:27:31 PM 39.1518 -75.5739 95° East 472 543 23,000  Level FlightAware ADS-B
Thu 03:28:01 PM 39.1459 -75.4883 95° East 473 544 23,000  Level FlightAware ADS-B
Thu 03:28:33 PM 39.1397 -75.4001 95° East 474 545 23,000  Level FlightAware ADS-B
Thu 03:29:05 PM 39.1333 -75.3093 95° East 474 545 23,000  Level FlightAware ADS-B
Thu 03:29:38 PM 39.1265 -75.2150 95° East 479 551 23,000  Level FlightAware ADS-B
Thu 03:30:10 PM 39.1198 -75.1237 95° East 479 551 23,000 281 Level FlightAware ADS-B
Thu 03:30:42 PM 39.1133 -75.0339 95° East 477 549 23,300 1,333 Climbing FlightAware ADS-B
Thu 03:31:22 PM 39.1048 -74.9220 96° East 482 555 24,600 2,034 Climbing FlightAware ADS-B
Thu 03:31:41 PM 39.0978 -74.8678 99° East 483 556 25,300 2,133 Climbing FlightAware ADS-B
Thu 03:32:07 PM 39.0817 -74.7951 106° East 481 554 26,200 1,950 Climbing FlightAware ADS-B
Thu 03:32:21 PM 39.0707 -74.7595 112° Southeast 481 554 26,600 1,800 Climbing FlightAware ADS-B
Thu 03:32:37 PM 39.0549 -74.7179 116° Southeast 480 552 27,100 1,929 Climbing FlightAware ADS-B
Thu 03:32:49 PM 39.0414 -74.6878 120° Southeast 480 552 27,500 1,953 Climbing FlightAware ADS-B
Thu 03:33:20 PM 39.0049 -74.6135 122° Southeast 483 556 28,500 1,714 Climbing FlightAware ADS-B
Thu 03:33:52 PM 38.9664 -74.5352 122° Southeast 490 564 29,300 1,500 Climbing FlightAware ADS-B
Thu 03:34:24 PM 38.9275 -74.4564 122° Southeast 498 573 30,100 1,355 Climbing FlightAware ADS-B
Thu 03:34:54 PM 38.8895 -74.3795 122° Southeast 508 585 30,700 885 Climbing FlightAware ADS-B
Thu 03:35:25 PM 38.8506 -74.3011 122° Southeast 514 592 31,000 281 Climbing FlightAware ADS-B
Thu 03:35:58 PM 38.8086 -74.2163 122° Southeast 515 593 31,000  Level FlightAware ADS-B
Thu 03:36:28 PM 38.7699 -74.1384 122° Southeast 512 589 31,000  Level FlightAware ADS-B
Thu 03:36:59 PM 38.7308 -74.0599 123° Southeast 511 588 31,000  Level FlightAware ADS-B
Thu 03:37:32 PM 38.6889 -73.9758 123° Southeast 512 589 31,000  Level FlightAware ADS-B
Thu 03:38:18 PM 38.6300 -73.8585 123° Southeast 514 592 31,000  Level FlightAware ADS-B
Thu 03:38:50 PM 38.5891 -73.7770 123° Southeast 511 588 31,000  Level FlightAware ADS-B
Thu 03:39:20 PM 38.5507 -73.7008 123° Southeast 507 583 31,000  Level FlightAware ADS-B
Thu 03:39:51 PM 38.5121 -73.6243 123° Southeast 508 585 31,000  Level FlightAware ADS-B
Thu 03:40:22 PM 38.4709 -73.5456 124° Southeast 509 586 31,000  Level FlightAware ADS-B
Thu 03:41:10 PM 38.4095 -73.4264 123° Southeast 511 588 31,000  Level FlightAware ADS-B
Thu 03:41:40 PM 38.3714 -73.3506 123° Southeast 508 585 31,000 98 Level FlightAware ADS-B
Thu 03:42:11 PM 38.3315 -73.2714 123° Southeast 507 583 31,100 290 Climbing FlightAware ADS-B
Thu 03:42:42 PM 38.2924 -73.1941 123° Southeast 509 586 31,300 462 Climbing FlightAware ADS-B
Thu 03:43:16 PM 38.2495 -73.1093 123° Southeast 509 586 31,600 438 Climbing FlightAware ADS-B
Thu 03:44:18 PM 38.1709 -72.9548 123° Southeast 504 580 32,000 220 Climbing FlightAware ADS-B
Thu 03:45:05 PM 38.1127 -72.8423 123° Southeast 486 559 32,000  Level FlightAware ADS-B
Thu 03:47:17 PM 37.9502 -72.5268 123° Southeast 490 564 32,000  Level FlightAware ADS-B
Thu 03:48:25 PM 37.8781 -72.3958 123° Southeast 488 562 32,000  Level New York Center
Thu 03:49:26 PM 37.8047 -72.2681 126° Southeast 481 554 32,000  Level New York Center
Thu 03:50:24 PM 37.7336 -72.1142 120° Southeast 481 554 32,000  Level New York Center
Thu 03:51:24 PM 37.6622 -71.9606 120° Southeast 493 567 32,000  Level New York Center
Thu 03:52:25 PM 37.6200 -71.8053 109° East 493 567 32,000  Level New York Center
Thu 03:53:25 PM 37.5483 -71.6575 121° Southeast 481 554 32,000  Level New York Center
Thu 03:54:26 PM 37.4911 -71.5050 115° Southeast 491 565 32,000  Level New York Center
Thu 03:55:24 PM 37.4147 -71.3603 124° Southeast 491 565 32,000  Level New York Center
Thu 03:57:00 PM 37.2972 -71.1810 129° Southeast  Level FlightAware Approximate
Thu 03:57:57 PM 37.4833 -71.4500 129° Southeast 438 504 32,000  Level New York Oceanic (ODAPS)
Thu 04:04:00 PM 36.6352 -70.1480 130° Southeast 438 504 32,000  Level FlightAware Transoceanic
Thu 04:05:00 PM 36.5574 -70.0311 130° Southeast 438 504 32,000  Level FlightAware Transoceanic
Thu 04:06:00 PM 36.4795 -69.9144 130° Southeast 438 504 32,000  Level FlightAware Transoceanic
Thu 04:07:00 PM 36.4014 -69.7980 130° Southeast 438 504 32,000  Level FlightAware Transoceanic
Thu 04:08:00 PM 36.3233 -69.6817 130° Southeast 438 504 32,000  Level FlightAware Transoceanic
Thu 04:09:00 PM 36.2450 -69.5658 130° Southeast 438 504 32,000  Level FlightAware Transoceanic
Thu 04:10:00 PM 36.1667 -69.4500 143° Southeast 438 504 32,000  Level FlightAware Transoceanic
Thu 04:10:59 PM 36.1667 -69.4500 143° Southeast 456 525 32,000  Level New York Oceanic (ODAPS)
Thu 04:11:00 PM 36.0604 -69.3494 143° Southeast 438 504 32,000  Level FlightAware Transoceanic
Thu 04:12:00 PM 35.9540 -69.2490 143° Southeast 438 504 32,000  Level FlightAware Transoceanic
Thu 04:13:00 PM 35.8475 -69.1490 143° Southeast 438 504 32,000  Level FlightAware Transoceanic
Thu 04:14:00 PM 35.7410 -69.0492 143° Southeast 438 504 32,000  Level FlightAware Transoceanic
Thu 04:15:00 PM 35.6344 -68.9497 143° Southeast 438 504 32,000  Level FlightAware Transoceanic
Thu 04:16:00 PM 35.5277 -68.8504 143° Southeast 438 504 32,000  Level FlightAware Transoceanic
Thu 04:17:00 PM 35.3568 -68.6921 143° Southeast 456 525 32,000  Level FlightAware Transoceanic
Thu 04:18:00 PM 35.2552 -68.5984 143° Southeast 456 525 32,000  Level FlightAware Transoceanic
Thu 04:19:00 PM 35.1536 -68.5050 143° Southeast 456 525 32,000  Level FlightAware Transoceanic
Thu 04:20:00 PM 35.0519 -68.4118 143° Southeast 456 525 32,000  Level FlightAware Transoceanic
Thu 04:21:00 PM 34.9501 -68.3188 143° Southeast 456 525 32,000  Level FlightAware Transoceanic
Thu 04:22:00 PM 34.8482 -68.2261 143° Southeast 456 525 32,000  Level FlightAware Transoceanic
Thu 04:23:00 PM 34.7463 -68.1336 143° Southeast 456 525 32,000  Level FlightAware Transoceanic
Thu 04:24:00 PM 34.6443 -68.0413 143° Southeast 456 525 32,000  Level FlightAware Transoceanic
Thu 04:25:00 PM 34.5423 -67.9493 143° Southeast 456 525 32,000  Level FlightAware Transoceanic
Thu 04:26:00 PM 34.4401 -67.8575 143° Southeast 456 525 32,000  Level FlightAware Transoceanic
Thu 04:27:00 PM 34.3379 -67.7659 144° Southeast 456 525 32,000  Level FlightAware Transoceanic
Thu 04:28:00 PM 34.2357 -67.6745 144° Southeast 456 525 32,000 -769 Level FlightAware Transoceanic
Thu 04:28:18 PM 34.1333 -67.5833 125° Southeast 426 490 31,000  Descending New York Oceanic (ODAPS)
Thu 04:29:00 PM 34.1333 -67.5833 125° Southeast 456 525 32,000 588 Climbing FlightAware Transoceanic
Thu 04:30:00 PM 34.0589 -67.4557 125° Southeast 456 525 32,000  Level FlightAware Transoceanic
Thu 04:31:00 PM 33.9844 -67.3282 125° Southeast 456 525 32,000  Level FlightAware Transoceanic
Thu 04:32:00 PM 33.9097 -67.2010 125° Southeast 456 525 32,000  Level FlightAware Transoceanic
Thu 04:33:00 PM 33.8349 -67.0740 125° Southeast 456 525 32,000 -500 Level FlightAware Transoceanic
Thu 04:34:00 PM 33.7258 -66.8897 125° Southeast 426 490 31,000 -500 Descending FlightAware Transoceanic
Thu 04:35:00 PM 33.6576 -66.7747 126° Southeast 426 490 31,000  Level FlightAware Transoceanic
Thu 04:36:00 PM 33.5892 -66.6599 126° Southeast 426 490 31,000  Level FlightAware Transoceanic
Thu 04:37:00 PM 33.5206 -66.5453 126° Southeast 426 490 31,000  Level FlightAware Transoceanic
Thu 04:38:00 PM 33.4520 -66.4309 126° Southeast 426 490 31,000 -838 Level FlightAware Transoceanic
Thu 04:39:00 PM 33.3546 -66.3568 148° Southeast  Level FlightAware Approximate
Thu 04:40:00 PM 33.3810 -66.3251 124° Southeast  Level FlightAware Approximate
Thu 04:41:00 PM 33.3127 -66.2138 124° Southeast  Level FlightAware Approximate
Thu 04:42:00 PM 33.2476 -66.0998 124° Southeast  Level FlightAware Approximate
Thu 04:42:58 PM 34.1333 -67.5833 125° Southeast 426 490 26,000  Level New York Oceanic (ODAPS)
Thu 04:43:00 PM 33.1814 -65.9868 127° Southeast  Level FlightAware Approximate
Thu 04:44:00 PM 33.1113 -65.8747 127° Southeast  Level FlightAware Approximate
Thu 04:45:00 PM 33.0411 -65.7628 127° Southeast  Level FlightAware Approximate
Thu 04:46:00 PM 32.8554 -65.4628 126° Southeast 426 490 31,000  Level FlightAware Transoceanic
Thu 04:47:00 PM 32.7834 -65.3468 126° Southeast 426 490 31,000 -8,152 Level FlightAware Transoceanic
Thu 04:47:32 PM 34.1333 -67.5833 125° Southeast 426 490 18,500  Descending New York Oceanic (ODAPS)
Thu 04:48:00 PM 32.7113 -65.2310 127° Southeast 426 490 31,000 5,114 Climbing FlightAware Transoceanic
Thu 04:49:00 PM 32.6390 -65.1154 127° Southeast 426 490 26,000 -2,500 Descending FlightAware Transoceanic
Thu 04:50:00 PM 32.5667 -65.0000 106° East 426 490 26,000 -8,449 Level FlightAware Transoceanic
Thu 04:50:38 PM 34.1333 -67.5833 125° Southeast 426 490 12,200  Descending New York Oceanic (ODAPS)
Thu 04:51:00 PM 32.5225 -64.8165 106° East 426 490 26,000  Climbing FlightAware Transoceanic
Thu 04:51:50 PM 32.5667 -65.0000 106° East 347 399 12,200  Descending New York Oceanic (ODAPS)
Thu 04:52:00 PM 32.4780 -64.6331 106° East 426 490 26,000 5,400 Climbing FlightAware Transoceanic
Thu 04:53:00 PM 32.4669 -64.5873 106° East 426 490 18,500 -14,810 Descending FlightAware Transoceanic
Thu 04:53:19 PM 32.5667 -65.0000 106° East 347 399 6,500 -8,182 Descending New York Oceanic (ODAPS)
Thu 04:54:00 PM 32.3732 -64.6706 121° Southeast  Level Estimated
Thu 04:54:28 PM 32.5667 -65.0000 106° East 110 127 6,500  Level New York Oceanic (ODAPS)
Thu 04:55:00 PM 32.3640 -64.6787 131° Southeast  Level Estimated
Thu 04:55:48 PM 32.5667 -65.0000 106° East 110 127 4,000  Level New York Oceanic (ODAPS)
Thu 04:56:00 PM 33.7754 -66.9674 126° Southeast  Level FlightAware Approximate
Thu 04:57:00 PM 33.7059 -66.8540 126° Southeast  Level FlightAware Approximate
Thu 04:58:00 PM 32.3640 -64.6787 90° East  Level Estimated
Thu 04:59:00 PM 32.3640 -64.6787 90° East  Level Estimated
Thu 05:00:00 PM 32.4836 -64.6561 106° East 110 127 6,500  Level FlightAware Transoceanic
Thu 05:01:00 PM 32.4753 -64.6217 106° East 110 127 6,500 -1,250 Level FlightAware Transoceanic
Thu 05:02:00 PM 32.4669 -64.5873 106° East 110 127 4,000 -1,250 Descending FlightAware Transoceanic
Thu 05:03:00 PM 32.4585 -64.5530 106° East 110 127 4,000 -870 Level FlightAware Transoceanic
Thu 05:03:09 PM 32.5667 -65.0000 106° East 110 127 3,000  Descending New York Oceanic (ODAPS)
Thu 05:04:00 PM 32.4501 -64.5187 106° East 110 127 4,000 541 Climbing FlightAware Transoceanic
Thu 05:05:00 PM 32.4417 -64.4843 106° East 110 127 4,000  Level FlightAware Transoceanic
Thu 05:06:00 PM 32.4333 -64.4500 154° Southeast 110 127 4,000  Level FlightAware Transoceanic
Thu 05:07:00 PM 32.4042 -64.4333 154° Southeast 110 127 4,000  Level FlightAware Transoceanic
Thu 05:08:00 PM 32.3750 -64.4166 154° Southeast 110 127 4,000 -500 Level FlightAware Transoceanic
Thu 05:09:00 PM 32.3458 -64.4000 154° Southeast 110 127 3,000 -1,000 Descending FlightAware Transoceanic
Thu 05:10:00 PM 32.3551 -64.5409 125° Southeast  Level Estimated
Thu 05:11:00 PM 32.3640 -64.6787 125° Southeast  Level Estimated
Thu 05:12:00 PM 32.3640 -64.6787 90° East  Level Estimated
Thu 05:13:00 PM 32.3640 -64.6787 90° East  Level Estimated
Thu 05:14:00 PM 32.3640 -64.6787 90° East  Level Estimated

Login

Don't have an account? Register now (free) for customized features, flight alerts, and more!